Main page
Satellite images 10-day forecastsClimateMarine weather Cyclones Lightning AirportsFAQ Newsletter About
Weather : Europe Africa North America South America Asia Australia-Oceania Others
Languages Contact

,

latitude: , longitude: , elevation: m


METAR: OTBD 281700Z 35004KT CAVOK 30/09 Q1011 NOSIG
TAF: OTBD 281700Z 2818/2924 33006KT CAVOK BECMG 2907/2909 04013KT BECMG 2917/2919 33007KT

Time: 20:13 (18:13 UTC)

Current weather observation

The report was made 1 hour and 13 minutes ago, at 17:00 UTC
Wind 4 kt from the North
Temperature 30°C
Humidity 27%
Pressure 1011 hPa
Visibility 10 km or more
no clouds below 1500 m and no cumulonimbus

Change units

Forecast

The report was made 1 hour and 13 minutes ago, at 17:00 UTC
Forecast valid from 28 at 18 UTC to 29 at 24 UTC
Wind 6 kt from the North/Northwest
Visibility 10 km or more
no clouds below 1500 m and no cumulonimbus
Becoming
from 29 at 07 UTC to 29 at 09 UTC
Wind 13 kt from the Northeast
Becoming
from 29 at 17 UTC to 29 at 19 UTC
Wind 7 kt from the North/Northwest
The information on this site is subject to a disclaimer
Weather : Europe Africa North America South America Asia Australia-Oceania Others
Satellite images 10-day forecastsClimateMarine weather Cyclones Lightning AirportsFAQ Languages Contact Newsletter About